Dauntless Aviation
Airports North America Curacao
TNCC
CUR

Hato International Airport

Willemstad, CURACAO

Airport Info
Suggest Updated Information for this Airport

Location

Latitude / Longitude: 12°11'20"N / 68°57'35"W
  12°11.334'N / 68°57.588'W
  12.1889 / -68.9598

Nearby radio navigation aids

HTO HATO TACAN on field.
PJG CURACAO VOR/DME. 113.7° 3.0nm from PJG to field.

Runway Information

Runway 11 /29

Dimensions: 11187 x 197 ft.
Surface: ASP
 
Runway 11
Runway 29
Latitude: 12.190411 12.185969
Longitude: -68.967544 -68.9443
Elevation: 25 ft. 25 ft.
Runway true heading: 102.1 282.1
 

Instrument Procedures

  Aerodrone Docking Chart (1)
  Aerodrone Docking Chart (2)

STARs (Standard Terminal Arrivals)

  STAR East 2 Arrival
  STAR East 2 Arrival Coding Table
  STAR West 2 Arrival
  STAR West 2 Arrival Coding Table

IAPs (Instrument Approach Procedures)

  IAP Rwy 11
  IAP Rwy 11 Coding Table
  IAP Rwy 29
  IAP Rwy 29 Coding Table
  ILS Rwy 11
  VOR Rwy 11
  VOR Rwy 29

Departure Procedures

  Obstacle Departure Chart
  SID East 1 Departure
  SID East 1 Departure Coding Table
  SID West 1 Departure
  SID West 1 Departure Coding Table
Satellite photo at:
Airport distance calculator
From:
Weather Reports

METAR

TNCB
39.8nm E
TNCB 230755Z AUTO 10010KT 9999 FEW014/// SCT024/// 28/25 Q1010

TAF

TNCC
TAF TNCC 230400Z 2306/2406 10014KT 9999 SCT020 PROB30 TEMPO 2306/2316 8000 SHRA BKN015
TNCB
39.8nm E
TAF TNCB 230412Z 2306/2412 09014KT 9999 SCT018 PROB30 TEMPO 2311/2318 6000 SHRA SCT015CB
Safelog

 

Dauntless Aviation

© 2007-2017 Dauntless Aviation, all rights reserved
Information provided via PilotNav comes from a variety of official and unofficial data sources. As errors are possible, do not use PilotNav for primary flight planning purposes. Verify any information that you receive via PilotNav with current and canonical charts and other official documents. The material in this database is subject to database copyrights held by Dauntless Aviation and may not be copied without the express permission of Dauntless Aviation - licenses for use of part of all of this data are available for purchase; enquire via the Dauntless Aviation helpdesk. A number of mechanisms and markers exist in the database to protect against and identify infringement / copyright. Automated queries against this website are stictly prohibited, and all activity is logged and analyzed.